Brigitte Bardot — VKV7340 — position and weather

sailwx.info

Track history (hours):
 
Tides and Currents Weather Stations Pressure Air Temp Water Temp Dewpoint Dewpoint Depression Visibility Wind Speed Wind Dir Waves Ship Positions

Brigitte Bardot

Last reported at 2017-Aug-25 20:53 UTC. Time now 2017-Sep-23 00:35 UTC.
Position N 37°46' W 000°33'.
Warning: this ship's position is 28 days out of date.

Length 35 m.

Type: Pleasure craft. MMSI: 503645100.

Date/timePositionNaut miles runAvg speedWind from/ knotsBaromVisibWave heightAir tempDewpointWater temp
2017-Aug-25 20:53N 37°46' W 000°33'2 6.5
2017-Aug-25 20:30N 37°44' W 000°35'5 7.4
2017-Aug-25 19:46N 37°39' W 000°37'8 7.4
2017-Aug-25 18:43N 37°35' W 000°46'  
2017-Aug-19 00:18N 37°27' W 000°45'48 7.4
2017-Aug-18 17:52N 38°02' W 000°03'3 7.9
2017-Aug-18 17:30N 38°04' W 000°01'4 7.9
2017-Aug-18 16:56N 38°07' E 000°03'19 7.5
2017-Aug-18 14:28N 38°22' E 000°18'6 3.7
2017-Aug-18 12:58N 38°26' E 000°23'62 8.3
2017-Aug-18 05:28N 39°12' E 001°15'4 8.1
2017-Aug-18 04:55N 39°16' E 001°18'4 8.0
2017-Aug-18 04:25N 39°19' E 001°21'8 7.9
2017-Aug-18 03:27N 39°26' E 001°27'23 7.7
2017-Aug-18 00:27N 39°44' E 001°45'4 7.6
2017-Aug-17 23:59N 39°47' E 001°48'4 7.7
2017-Aug-17 23:30N 39°50' E 001°50'4 7.8
2017-Aug-17 23:00N 39°53' E 001°53'4 7.9
2017-Aug-17 22:30N 39°56' E 001°56'4 7.7
2017-Aug-17 21:59N 39°59' E 001°59'4 7.6
2017-Aug-17 21:30N 40°02' E 002°02'4 7.3
2017-Aug-17 20:59N 40°06' E 002°05'4 7.2
2017-Aug-17 20:28N 40°09' E 002°07'3 7.4
2017-Aug-17 20:00N 40°12' E 002°10'4 7.4
2017-Aug-17 19:28N 40°15' E 002°12'4 7.6
2017-Aug-17 19:00N 40°18' E 002°15'4 7.6
2017-Aug-17 18:29N 40°21' E 002°18'4 7.5
2017-Aug-17 18:00N 40°24' E 002°21'4 7.5
2017-Aug-17 17:26N 40°27' E 002°24'3 7.7
2017-Aug-17 16:59N 40°30' E 002°27'4 7.8
2017-Aug-17 16:30N 40°33' E 002°30'4 7.9
2017-Aug-17 15:59N 40°37' E 002°33'5 7.8
2017-Aug-17 15:18N 40°41' E 002°37'2 7.4
2017-Aug-17 14:59N 40°43' E 002°39'4 7.5
2017-Aug-17 14:29N 40°46' E 002°41'5 7.7
2017-Aug-17 13:48N 40°50' E 002°45'3 7.8
2017-Aug-17 13:25N 40°53' E 002°47'3 7.9
2017-Aug-17 12:59N 40°56' E 002°50'129 8.4
2017-Aug-16 21:37N 42°37' E 004°37'1 7.9
2017-Aug-16 21:27N 42°38' E 004°38'4 8.1
2017-Aug-16 21:00N 42°41' E 004°42'5 8.5
2017-Aug-16 20:26N 42°45' E 004°46'4 8.6
2017-Aug-16 19:58N 42°48' E 004°49'4 8.4
2017-Aug-16 19:30N 42°51' E 004°52'4 8.2
2017-Aug-16 19:00N 42°54' E 004°56'4 8.1
2017-Aug-16 18:30N 42°57' E 004°59'4 8.2
2017-Aug-16 18:00N 43°01' E 005°03'4 8.2
2017-Aug-16 17:30N 43°04' E 005°06'4 8.0
2017-Aug-16 17:00N 43°07' E 005°10'4 8.0
2017-Aug-16 16:27N 43°10' E 005°14'9 0.5
2017-Aug-15 22:37N 43°18' E 005°21'0 0.0
2017-Aug-15 22:22N 43°18' E 005°21'  
Track history (hours):
 
Tides and Currents Weather Stations Pressure Air Temp Water Temp Dewpoint Dewpoint Depression Visibility Wind Speed Wind Dir Waves Ship Positions

Brigitte Bardot

Last reported at 2017-Aug-25 20:53 UTC. Time now 2017-Sep-23 00:35 UTC.
Position N 37°46' W 000°33'.
Warning: this ship's position is 28 days out of date.

Length 35 m.

Type: Pleasure craft. MMSI: 503645100.

Date/timePositionNaut miles runAvg speedWind from/ knotsBaromVisibWave heightAir tempDewpointWater temp
2017-Aug-25 20:53N 37°46' W 000°33'2 6.5
2017-Aug-25 20:30N 37°44' W 000°35'5 7.4
2017-Aug-25 19:46N 37°39' W 000°37'8 7.4
2017-Aug-25 18:43N 37°35' W 000°46'  
2017-Aug-19 00:18N 37°27' W 000°45'48 7.4
2017-Aug-18 17:52N 38°02' W 000°03'3 7.9
2017-Aug-18 17:30N 38°04' W 000°01'4 7.9
2017-Aug-18 16:56N 38°07' E 000°03'19 7.5
2017-Aug-18 14:28N 38°22' E 000°18'6 3.7
2017-Aug-18 12:58N 38°26' E 000°23'62 8.3
2017-Aug-18 05:28N 39°12' E 001°15'4 8.1
2017-Aug-18 04:55N 39°16' E 001°18'4 8.0
2017-Aug-18 04:25N 39°19' E 001°21'8 7.9
2017-Aug-18 03:27N 39°26' E 001°27'23 7.7
2017-Aug-18 00:27N 39°44' E 001°45'4 7.6
2017-Aug-17 23:59N 39°47' E 001°48'4 7.7
2017-Aug-17 23:30N 39°50' E 001°50'4 7.8
2017-Aug-17 23:00N 39°53' E 001°53'4 7.9
2017-Aug-17 22:30N 39°56' E 001°56'4 7.7
2017-Aug-17 21:59N 39°59' E 001°59'4 7.6
2017-Aug-17 21:30N 40°02' E 002°02'4 7.3
2017-Aug-17 20:59N 40°06' E 002°05'4 7.2
2017-Aug-17 20:28N 40°09' E 002°07'3 7.4
2017-Aug-17 20:00N 40°12' E 002°10'4 7.4
2017-Aug-17 19:28N 40°15' E 002°12'4 7.6
2017-Aug-17 19:00N 40°18' E 002°15'4 7.6
2017-Aug-17 18:29N 40°21' E 002°18'4 7.5
2017-Aug-17 18:00N 40°24' E 002°21'4 7.5
2017-Aug-17 17:26N 40°27' E 002°24'3 7.7
2017-Aug-17 16:59N 40°30' E 002°27'4 7.8
2017-Aug-17 16:30N 40°33' E 002°30'4 7.9
2017-Aug-17 15:59N 40°37' E 002°33'5 7.8
2017-Aug-17 15:18N 40°41' E 002°37'2 7.4
2017-Aug-17 14:59N 40°43' E 002°39'4 7.5
2017-Aug-17 14:29N 40°46' E 002°41'5 7.7
2017-Aug-17 13:48N 40°50' E 002°45'3 7.8
2017-Aug-17 13:25N 40°53' E 002°47'3 7.9
2017-Aug-17 12:59N 40°56' E 002°50'129 8.4
2017-Aug-16 21:37N 42°37' E 004°37'1 7.9
2017-Aug-16 21:27N 42°38' E 004°38'4 8.1
2017-Aug-16 21:00N 42°41' E 004°42'5 8.5
2017-Aug-16 20:26N 42°45' E 004°46'4 8.6
2017-Aug-16 19:58N 42°48' E 004°49'4 8.4
2017-Aug-16 19:30N 42°51' E 004°52'4 8.2
2017-Aug-16 19:00N 42°54' E 004°56'4 8.1
2017-Aug-16 18:30N 42°57' E 004°59'4 8.2
2017-Aug-16 18:00N 43°01' E 005°03'4 8.2
2017-Aug-16 17:30N 43°04' E 005°06'4 8.0
2017-Aug-16 17:00N 43°07' E 005°10'4 8.0
2017-Aug-16 16:27N 43°10' E 005°14'9 0.5
2017-Aug-15 22:37N 43°18' E 005°21'0 0.0
2017-Aug-15 22:22N 43°18' E 005°21'  

Dump ship's entire track history